Seaspan Chiwan — VRBH3 — position and weather

sailwx.info

Track history (hours):
 
Tides and Currents Weather Stations Pressure Air Temp Water Temp Dewpoint Dewpoint Depression Visibility Wind Speed Wind Dir Waves Ship Positions

Seaspan Chiwan

Last reported at 2014-Nov-01 05:33 UTC. Time now 2014-Nov-01 05:36 UTC.
Position N 38°59' E 003°25'.

Length 260 m; draft 10.1 m.

Type: Cargo ship. MMSI: 477014500.

Date/timePositionNaut miles runAvg speedWind from/ knotsBaromVisibWave heightAir tempDewpointWater temp
2014-Nov-01 05:33N 38°59' E 003°25'1716.8
2014-Nov-01 04:34N 39°02' E 003°04'1716.9
2014-Nov-01 03:33N 39°05' E 002°43'1716.8
2014-Nov-01 02:33N 39°09' E 002°22'1716.4
2014-Nov-01 01:33N 39°12' E 002°01'1716.6
2014-Nov-01 00:34N 39°15' E 001°40'1716.8
2014-Oct-31 23:33N 39°17' E 001°18'6816.7
2014-Oct-31 19:29N 39°24' W 000°09'8 8.5
2014-Oct-31 18:33N 39°27' W 000°19'0 0.0
2014-Oct-31 17:33N 39°27' W 000°19'0 0.0
2014-Oct-31 16:33N 39°27' W 000°19'0 0.0
2014-Oct-31 15:33N 39°27' W 000°19'0 0.0
2014-Oct-31 14:33N 39°27' W 000°19'0 0.0
2014-Oct-31 13:33N 39°27' W 000°19'0 0.0
2014-Oct-31 12:33N 39°27' W 000°19'0 0.0
2014-Oct-31 11:33N 39°27' W 000°19'0 0.0
2014-Oct-31 10:33N 39°27' W 000°19'0 0.0
2014-Oct-31 09:33N 39°27' W 000°19'0 0.0
2014-Oct-31 08:33N 39°27' W 000°19'0 0.0
2014-Oct-31 07:33N 39°27' W 000°19'0 0.0
2014-Oct-31 06:33N 39°27' W 000°19'0 0.0
2014-Oct-31 05:33N 39°27' W 000°19'5 4.9
2014-Oct-31 04:33N 39°24' W 000°14'4815.2
2014-Oct-31 01:23N 38°47' E 000°26'1314.7
2014-Oct-31 00:31N 38°35' E 000°23'1615.5
2014-Oct-30 23:29N 38°22' E 000°11'1515.8
2014-Oct-30 22:33N 38°10' E 000°00'1716.3
2014-Oct-30 21:31N 37°56' W 000°12'1616.0
2014-Oct-30 20:33N 37°43' W 000°22'1615.9
2014-Oct-30 19:33N 37°31' W 000°35'1616.2
2014-Oct-30 18:34N 37°20' W 000°50'1615.9
2014-Oct-30 17:33N 37°09' W 001°04'20815.5
2014-Oct-30 04:11N 36°01' W 005°09'1016.4
2014-Oct-30 03:33N 35°59' W 005°21'146 7.6
2014-Oct-29 08:15N 36°15' W 008°21'2713.6
2014-Oct-29 06:16N 36°23' W 008°53'1013.9
2014-Oct-29 05:33N 36°26' W 009°05'7312.1
2014-Oct-28 23:29N 37°33' W 009°41'1313.8
2014-Oct-28 22:33N 37°46' W 009°41'1414.0
2014-Oct-28 21:33N 37°60' W 009°40'1414.1
2014-Oct-28 20:33N 38°14' W 009°40'1313.5
2014-Oct-28 19:33N 38°26' W 009°34'1413.6
2014-Oct-28 18:32N 38°37' W 009°22'1111.0
2014-Oct-28 17:33N 38°42' W 009°10'0 0.4
2014-Oct-28 16:31N 38°42' W 009°10'0 0.0
2014-Oct-28 15:33N 38°42' W 009°10'0 0.0
2014-Oct-28 14:33N 38°42' W 009°10'0 0.0
2014-Oct-28 13:33N 38°42' W 009°10'0 0.0
2014-Oct-28 12:33N 38°42' W 009°10'0 0.0
2014-Oct-28 11:33N 38°42' W 009°10'0 0.0
2014-Oct-28 10:33N 38°42' W 009°10'0 0.0
2014-Oct-28 09:33N 38°42' W 009°10'0 0.0
2014-Oct-28 08:33N 38°42' W 009°10'0 0.1
2014-Oct-28 07:33N 38°42' W 009°10'1111.1
2014-Oct-28 06:33N 38°37' W 009°23'5 4.6
2014-Oct-28 05:33N 38°40' W 009°28'1110.0
2014-Oct-28 04:28N 38°36' W 009°41'1112.2
2014-Oct-28 03:33N 38°34' W 009°55'1212.3
2014-Oct-28 02:33N 38°33' W 010°11'1312.4
2014-Oct-28 01:32N 38°31' W 010°26'1212.1
2014-Oct-28 00:33N 38°30' W 010°42'1212.2
2014-Oct-27 23:33N 38°28' W 010°57'1212.6
2014-Oct-27 22:33N 38°27' W 011°13'1312.4
2014-Oct-27 21:33N 38°26' W 011°29'1515.1
2014-Oct-27 20:33N 38°24' W 011°48'1716.9
2014-Oct-27 19:33N 38°22' W 012°09'1716.8
2014-Oct-27 18:33N 38°20' W 012°30'1716.9
2014-Oct-27 17:33N 38°18' W 012°52'2617.3
2014-Oct-27 16:04N 38°15' W 013°24'917.3
2014-Oct-27 15:32N 38°14' W 013°36'1717.1
2014-Oct-27 14:33N 38°12' W 013°57'1716.9
2014-Oct-27 13:33N 38°10' W 014°19'12416.5
2014-Oct-27 06:00N 37°48' W 016°54'10617.7 270 / 131015.010.8 1.020.016.717.0
2014-Oct-27 00:00N 37°30' W 019°06'20116.7 230 / 71011.010.8 0.520.018.422.0
2014-Oct-26 12:00N 36°48' W 023°12'1227.4 340 / 81013.010.8 0.519.015.720.0
2014-Oct-26 11:33N 36°47' W 023°27'1717.0
2014-Oct-26 10:33N 36°43' W 023°48'1716.7
2014-Oct-26 09:33N 36°40' W 024°08'1716.6
2014-Oct-26 08:33N 36°35' W 024°28'1616.5
2014-Oct-26 07:33N 36°32' W 024°48'2137.0
2014-Oct-26 07:00N 36°24' W 025°12'511.8 020 / 141015.010.8 1.518.014.615.0
2014-Oct-26 06:34N 36°28' W 025°08'1616.5
2014-Oct-26 05:33N 36°24' W 025°28'1616.4
2014-Oct-26 04:33N 36°20' W 025°48'1616.5
2014-Oct-26 03:34N 36°16' W 026°07'1716.5
2014-Oct-26 02:32N 36°11' W 026°28'4216.6
2014-Oct-26 00:00N 36°00' W 027°18'19816.5 340 / 121014.010.8 1.019.013.820.0
2014-Oct-25 12:00N 35°06' W 031°12'21317.8 020 / 161015.010.8 1.021.012.220.0
2014-Oct-25 00:00N 34°00' W 035°18'10617.7 350 / 151015.010.8 1.023.018.323.0
2014-Oct-24 18:00N 33°24' W 037°18'20517.1 330 / 181014.010.8 2.025.018.822.0
2014-Oct-24 06:00N 32°12' W 041°06'10116.8 300 / 161016.010.8 1.524.017.720.0
2014-Oct-24 00:00N 31°30' W 042°54'20817.4 050 / 101017.010.8 0.525.017.025.0
2014-Oct-23 12:00N 30°06' W 046°36'10317.1 140 / 81018.0 0.526.019.926.0
2014-Oct-23 06:00N 29°24' W 048°24'10116.9 160 / 141015.010.8 1.526.018.224.0
2014-Oct-23 00:00N 28°36' W 050°06'9916.5 170 / 121014.0 0.526.021.526.0
2014-Oct-22 18:00N 27°54' W 051°48'11519.1 120 / 121012.010.8 1.028.022.126.0
2014-Oct-22 12:00N 27°00' W 053°42'   160 / 81012.010.8 0.527.024.126.0
Track history (hours):
 
Tides and Currents Weather Stations Pressure Air Temp Water Temp Dewpoint Dewpoint Depression Visibility Wind Speed Wind Dir Waves Ship Positions

Seaspan Chiwan

Last reported at 2014-Nov-01 05:33 UTC. Time now 2014-Nov-01 05:36 UTC.
Position N 38°59' E 003°25'.

Length 260 m; draft 10.1 m.

Type: Cargo ship. MMSI: 477014500.

Date/timePositionNaut miles runAvg speedWind from/ knotsBaromVisibWave heightAir tempDewpointWater temp
2014-Nov-01 05:33N 38°59' E 003°25'1716.8
2014-Nov-01 04:34N 39°02' E 003°04'1716.9
2014-Nov-01 03:33N 39°05' E 002°43'1716.8
2014-Nov-01 02:33N 39°09' E 002°22'1716.4
2014-Nov-01 01:33N 39°12' E 002°01'1716.6
2014-Nov-01 00:34N 39°15' E 001°40'1716.8
2014-Oct-31 23:33N 39°17' E 001°18'6816.7
2014-Oct-31 19:29N 39°24' W 000°09'8 8.5
2014-Oct-31 18:33N 39°27' W 000°19'0 0.0
2014-Oct-31 17:33N 39°27' W 000°19'0 0.0
2014-Oct-31 16:33N 39°27' W 000°19'0 0.0
2014-Oct-31 15:33N 39°27' W 000°19'0 0.0
2014-Oct-31 14:33N 39°27' W 000°19'0 0.0
2014-Oct-31 13:33N 39°27' W 000°19'0 0.0
2014-Oct-31 12:33N 39°27' W 000°19'0 0.0
2014-Oct-31 11:33N 39°27' W 000°19'0 0.0
2014-Oct-31 10:33N 39°27' W 000°19'0 0.0
2014-Oct-31 09:33N 39°27' W 000°19'0 0.0
2014-Oct-31 08:33N 39°27' W 000°19'0 0.0
2014-Oct-31 07:33N 39°27' W 000°19'0 0.0
2014-Oct-31 06:33N 39°27' W 000°19'0 0.0
2014-Oct-31 05:33N 39°27' W 000°19'5 4.9
2014-Oct-31 04:33N 39°24' W 000°14'4815.2
2014-Oct-31 01:23N 38°47' E 000°26'1314.7
2014-Oct-31 00:31N 38°35' E 000°23'1615.5
2014-Oct-30 23:29N 38°22' E 000°11'1515.8
2014-Oct-30 22:33N 38°10' E 000°00'1716.3
2014-Oct-30 21:31N 37°56' W 000°12'1616.0
2014-Oct-30 20:33N 37°43' W 000°22'1615.9
2014-Oct-30 19:33N 37°31' W 000°35'1616.2
2014-Oct-30 18:34N 37°20' W 000°50'1615.9
2014-Oct-30 17:33N 37°09' W 001°04'20815.5
2014-Oct-30 04:11N 36°01' W 005°09'1016.4
2014-Oct-30 03:33N 35°59' W 005°21'146 7.6
2014-Oct-29 08:15N 36°15' W 008°21'2713.6
2014-Oct-29 06:16N 36°23' W 008°53'1013.9
2014-Oct-29 05:33N 36°26' W 009°05'7312.1
2014-Oct-28 23:29N 37°33' W 009°41'1313.8
2014-Oct-28 22:33N 37°46' W 009°41'1414.0
2014-Oct-28 21:33N 37°60' W 009°40'1414.1
2014-Oct-28 20:33N 38°14' W 009°40'1313.5
2014-Oct-28 19:33N 38°26' W 009°34'1413.6
2014-Oct-28 18:32N 38°37' W 009°22'1111.0
2014-Oct-28 17:33N 38°42' W 009°10'0 0.4
2014-Oct-28 16:31N 38°42' W 009°10'0 0.0
2014-Oct-28 15:33N 38°42' W 009°10'0 0.0
2014-Oct-28 14:33N 38°42' W 009°10'0 0.0
2014-Oct-28 13:33N 38°42' W 009°10'0 0.0
2014-Oct-28 12:33N 38°42' W 009°10'0 0.0
2014-Oct-28 11:33N 38°42' W 009°10'0 0.0
2014-Oct-28 10:33N 38°42' W 009°10'0 0.0
2014-Oct-28 09:33N 38°42' W 009°10'0 0.0
2014-Oct-28 08:33N 38°42' W 009°10'0 0.1
2014-Oct-28 07:33N 38°42' W 009°10'1111.1
2014-Oct-28 06:33N 38°37' W 009°23'5 4.6
2014-Oct-28 05:33N 38°40' W 009°28'1110.0
2014-Oct-28 04:28N 38°36' W 009°41'1112.2
2014-Oct-28 03:33N 38°34' W 009°55'1212.3
2014-Oct-28 02:33N 38°33' W 010°11'1312.4
2014-Oct-28 01:32N 38°31' W 010°26'1212.1
2014-Oct-28 00:33N 38°30' W 010°42'1212.2
2014-Oct-27 23:33N 38°28' W 010°57'1212.6
2014-Oct-27 22:33N 38°27' W 011°13'1312.4
2014-Oct-27 21:33N 38°26' W 011°29'1515.1
2014-Oct-27 20:33N 38°24' W 011°48'1716.9
2014-Oct-27 19:33N 38°22' W 012°09'1716.8
2014-Oct-27 18:33N 38°20' W 012°30'1716.9
2014-Oct-27 17:33N 38°18' W 012°52'2617.3
2014-Oct-27 16:04N 38°15' W 013°24'917.3
2014-Oct-27 15:32N 38°14' W 013°36'1717.1
2014-Oct-27 14:33N 38°12' W 013°57'1716.9
2014-Oct-27 13:33N 38°10' W 014°19'12416.5
2014-Oct-27 06:00N 37°48' W 016°54'10617.7 270 / 131015.010.8 1.020.016.717.0
2014-Oct-27 00:00N 37°30' W 019°06'20116.7 230 / 71011.010.8 0.520.018.422.0
2014-Oct-26 12:00N 36°48' W 023°12'1227.4 340 / 81013.010.8 0.519.015.720.0
2014-Oct-26 11:33N 36°47' W 023°27'1717.0
2014-Oct-26 10:33N 36°43' W 023°48'1716.7
2014-Oct-26 09:33N 36°40' W 024°08'1716.6
2014-Oct-26 08:33N 36°35' W 024°28'1616.5
2014-Oct-26 07:33N 36°32' W 024°48'2137.0
2014-Oct-26 07:00N 36°24' W 025°12'511.8 020 / 141015.010.8 1.518.014.615.0
2014-Oct-26 06:34N 36°28' W 025°08'1616.5
2014-Oct-26 05:33N 36°24' W 025°28'1616.4
2014-Oct-26 04:33N 36°20' W 025°48'1616.5
2014-Oct-26 03:34N 36°16' W 026°07'1716.5
2014-Oct-26 02:32N 36°11' W 026°28'4216.6
2014-Oct-26 00:00N 36°00' W 027°18'19816.5 340 / 121014.010.8 1.019.013.820.0
2014-Oct-25 12:00N 35°06' W 031°12'21317.8 020 / 161015.010.8 1.021.012.220.0
2014-Oct-25 00:00N 34°00' W 035°18'10617.7 350 / 151015.010.8 1.023.018.323.0
2014-Oct-24 18:00N 33°24' W 037°18'20517.1 330 / 181014.010.8 2.025.018.822.0
2014-Oct-24 06:00N 32°12' W 041°06'10116.8 300 / 161016.010.8 1.524.017.720.0
2014-Oct-24 00:00N 31°30' W 042°54'20817.4 050 / 101017.010.8 0.525.017.025.0
2014-Oct-23 12:00N 30°06' W 046°36'10317.1 140 / 81018.0 0.526.019.926.0
2014-Oct-23 06:00N 29°24' W 048°24'10116.9 160 / 141015.010.8 1.526.018.224.0
2014-Oct-23 00:00N 28°36' W 050°06'9916.5 170 / 121014.0 0.526.021.526.0
2014-Oct-22 18:00N 27°54' W 051°48'11519.1 120 / 121012.010.8 1.028.022.126.0
2014-Oct-22 12:00N 27°00' W 053°42'   160 / 81012.010.8 0.527.024.126.0

Dump ship's entire track history